Time;durP1;ratioP1;P1;durP2;ratioP2;P2;SDS_P1;SDS_P2;PMS_P1;PMS_P2;Temp;Humidity;BMP_temperature;BMP_pressure;BME280_temperature;BME280_humidity;BME280_pressure;Samples;Min_cycle;Max_cycle;Signal;HPM_P1;HPM_P2
2021/01/02 00:00:08;;;;;;;12.73;6.50;;;2.80;80.80;;;;;;5074032;28;20119;-45
2021/01/02 00:02:43;;;;;;;10.50;5.63;;;2.70;80.90;;;;;;5074019;28;20120;-43
2021/01/02 00:05:13;;;;;;;12.45;6.15;;;2.80;80.80;;;;;;5074067;28;20055;-43
2021/01/02 00:08:06;;;;;;;12.02;6.22;;;2.80;80.60;;;;;;5072411;28;20032;-46
2021/01/02 00:10:41;;;;;;;12.68;6.18;;;2.80;80.50;;;;;;5073967;28;20179;-45
2021/01/02 00:13:16;;;;;;;13.70;6.50;;;2.80;80.60;;;;;;5072600;28;20028;-42
2021/01/02 00:16:09;;;;;;;11.77;6.17;;;2.70;80.80;;;;;;5061145;28;20067;-44
2021/01/02 00:18:37;;;;;;;12.73;6.78;;;2.70;81.10;;;;;;5068416;28;20044;-43
2021/01/02 00:21:25;;;;;;;12.85;6.20;;;2.70;81.10;;;;;;5073449;28;20032;-43
2021/01/02 00:24:11;;;;;;;12.95;6.57;;;2.70;81.20;;;;;;5073421;28;20392;-43
2021/01/02 00:26:47;;;;;;;13.18;6.53;;;2.70;81.10;;;;;;5072250;28;20031;-42
2021/01/02 00:29:24;;;;;;;15.27;7.20;;;2.80;81.00;;;;;;5072269;28;20119;-44
2021/01/02 00:32:19;;;;;;;13.18;7.00;;;2.70;80.70;;;;;;5070937;28;20036;-43
2021/01/02 00:34:50;;;;;;;14.95;6.65;;;2.80;80.80;;;;;;5073127;28;20025;-45
2021/01/02 00:37:35;;;;;;;15.50;6.80;;;2.70;80.90;;;;;;5073164;28;20070;-44
2021/01/02 00:40:12;;;;;;;15.45;7.55;;;2.80;81.00;;;;;;5071778;28;20392;-47
2021/01/02 00:42:40;;;;;;;15.30;7.43;;;2.80;80.80;;;;;;5053486;28;20029;-43
2021/01/02 00:45:08;;;;;;;12.75;6.68;;;2.90;80.70;;;;;;5053567;28;20033;-45
2021/01/02 00:47:40;;;;;;;17.48;7.57;;;2.80;80.80;;;;;;5052942;28;20037;-46
2021/01/02 00:50:08;;;;;;;15.02;6.93;;;2.80;80.80;;;;;;5053595;28;20024;-45
2021/01/02 00:52:55;;;;;;;13.63;6.85;;;2.80;81.00;;;;;;5051937;28;20076;-43
2021/01/02 00:55:59;;;;;;;10.98;5.82;;;2.80;81.00;;;;;;5053257;28;20036;-44
2021/01/02 00:58:55;;;;;;;14.35;6.53;;;2.80;81.00;;;;;;5053146;28;20404;-44
2021/01/02 01:01:32;;;;;;;15.57;6.72;;;2.70;81.30;;;;;;5053040;28;20029;-45
2021/01/02 01:04:17;;;;;;;13.95;6.35;;;2.70;81.70;;;;;;5052911;28;20029;-44
2021/01/02 01:06:46;;;;;;;14.32;6.80;;;2.70;81.70;;;;;;5053226;28;20029;-44
2021/01/02 01:09:16;;;;;;;14.25;6.78;;;2.70;81.30;;;;;;5035703;28;20036;-44
2021/01/02 01:11:45;;;;;;;18.13;7.18;;;2.70;81.40;;;;;;5052642;28;20155;-45
2021/01/02 01:14:11;;;;;;;14.25;6.47;;;2.70;81.40;;;;;;5052410;28;20124;-45
2021/01/02 01:16:47;;;;;;;13.52;6.43;;;2.70;81.60;;;;;;5052549;28;20047;-45
2021/01/02 01:19:16;;;;;;;15.10;7.32;;;2.80;81.10;;;;;;5053068;28;20043;-44
2021/01/02 01:21:45;;;;;;;16.88;7.75;;;2.70;81.20;;;;;;5053048;28;20095;-46
2021/01/02 01:24:15;;;;;;;15.80;6.93;;;2.90;81.20;;;;;;5068427;28;20040;-44
2021/01/02 01:26:56;;;;;;;14.30;7.43;;;2.80;80.80;;;;;;5072589;28;20064;-43
2021/01/02 01:29:41;;;;;;;14.18;7.30;;;2.90;80.90;;;;;;5072487;28;20039;-46
2021/01/02 01:32:08;;;;;;;15.65;6.70;;;2.80;81.00;;;;;;5072443;28;20032;-44
2021/01/02 01:34:35;;;;;;;17.02;7.85;;;2.70;81.10;;;;;;5072436;28;20052;-43
2021/01/02 01:37:06;;;;;;;13.75;6.50;;;2.80;81.10;;;;;;5072032;28;20028;-43
2021/01/02 01:39:33;;;;;;;14.90;6.25;;;2.80;81.10;;;;;;5071504;28;20028;-43
2021/01/02 01:42:02;;;;;;;15.18;7.53;;;2.80;80.90;;;;;;5054657;28;20029;-43
2021/01/02 01:44:56;;;;;;;15.75;7.53;;;2.70;81.30;;;;;;5055190;28;20500;-43
2021/01/02 01:47:34;;;;;;;15.23;6.43;;;2.80;81.10;;;;;;5070281;28;20046;-45
2021/01/02 01:50:26;;;;;;;18.25;7.53;;;2.80;81.10;;;;;;5071605;28;20119;-47
2021/01/02 01:52:52;;;;;;;16.23;8.27;;;2.70;81.30;;;;;;5052120;28;20044;-44
2021/01/02 01:55:48;;;;;;;16.55;7.63;;;2.80;81.10;;;;;;5052598;28;20029;-43
2021/01/02 01:58:20;;;;;;;15.23;7.00;;;2.70;81.00;;;;;;5052599;28;20082;-44
2021/01/02 02:00:50;;;;;;;17.50;7.70;;;2.70;81.00;;;;;;5051931;28;20029;-45
2021/01/02 02:03:27;;;;;;;14.88;6.95;;;2.70;81.30;;;;;;5051022;28;20146;-42
2021/01/02 02:06:29;;;;;;;14.60;7.32;;;2.70;81.20;;;;;;5051892;28;20036;-45
2021/01/02 02:09:02;;;;;;;15.40;6.85;;;2.70;81.10;;;;;;5051791;28;20166;-43
2021/01/02 02:11:36;;;;;;;16.17;7.80;;;2.80;80.90;;;;;;5051946;28;20511;-44
2021/01/02 02:14:14;;;;;;;17.13;6.95;;;2.80;80.90;;;;;;5055090;28;20037;-48
2021/01/02 02:16:43;;;;;;;15.00;7.10;;;2.80;80.70;;;;;;5056434;28;20037;-44
2021/01/02 02:19:46;;;;;;;12.98;6.85;;;2.80;80.80;;;;;;5068054;28;20090;-46
2021/01/02 02:22:16;;;;;;;15.32;7.10;;;2.90;80.80;;;;;;5076100;28;20029;-42
2021/01/02 02:24:43;;;;;;;15.98;7.93;;;2.80;80.70;;;;;;5076115;28;20044;-44
2021/01/02 02:27:13;;;;;;;17.13;7.13;;;2.80;80.70;;;;;;5075866;28;20036;-43
2021/01/02 02:30:07;;;;;;;15.55;7.95;;;2.90;80.60;;;;;;5075903;28;20033;-46
2021/01/02 02:32:45;;;;;;;15.93;7.72;;;2.80;80.60;;;;;;5075215;28;20211;-43
2021/01/02 02:35:20;;;;;;;17.33;7.97;;;2.80;80.70;;;;;;5055942;28;20397;-43
2021/01/02 02:37:49;;;;;;;18.73;7.97;;;2.70;80.70;;;;;;5055701;28;20036;-45
2021/01/02 02:40:19;;;;;;;15.65;7.90;;;2.70;80.70;;;;;;5058807;28;20112;-44
2021/01/02 02:42:59;;;;;;;19.30;8.57;;;2.70;80.80;;;;;;5075761;28;20032;-46
2021/01/02 02:45:29;;;;;;;16.63;7.30;;;2.80;80.80;;;;;;5075938;28;20020;-44
2021/01/02 02:48:02;;;;;;;16.45;7.78;;;2.70;80.90;;;;;;5069591;28;20118;-44
2021/01/02 02:50:28;;;;;;;19.35;8.38;;;2.70;81.10;;;;;;5055366;28;20043;-47
2021/01/02 02:53:07;;;;;;;16.20;7.45;;;2.70;81.30;;;;;;5055023;28;20033;-41
2021/01/02 02:55:37;;;;;;;18.60;8.18;;;2.70;81.30;;;;;;5054563;28;20101;-43
2021/01/02 02:58:03;;;;;;;22.85;8.75;;;2.70;81.40;;;;;;5053783;28;20044;-44
2021/01/02 03:00:29;;;;;;;16.52;7.90;;;2.70;81.30;;;;;;5055698;28;20405;-42
2021/01/02 03:02:56;;;;;;;19.73;8.80;;;2.70;81.50;;;;;;5053806;28;20037;-43
2021/01/02 03:05:22;;;;;;;21.38;8.27;;;2.70;81.20;;;;;;5054498;28;20061;-45
2021/01/02 03:07:49;;;;;;;17.80;8.25;;;2.80;81.10;;;;;;5055121;28;20025;-42
2021/01/02 03:10:16;;;;;;;18.67;8.10;;;2.90;80.90;;;;;;5037599;28;20409;-43
2021/01/02 03:12:47;;;;;;;19.15;7.97;;;2.90;80.60;;;;;;5055181;28;20033;-43
2021/01/02 03:15:15;;;;;;;19.20;8.68;;;2.90;80.70;;;;;;5054639;28;20061;-45
2021/01/02 03:17:42;;;;;;;18.20;8.43;;;3.00;80.70;;;;;;5055007;28;20037;-45
2021/01/02 03:20:10;;;;;;;20.52;8.63;;;2.90;80.80;;;;;;5074756;28;20059;-43
2021/01/02 03:22:39;;;;;;;20.15;9.05;;;2.90;80.70;;;;;;5074176;28;20028;-43
2021/01/02 03:25:07;;;;;;;18.40;7.97;;;3.00;80.70;;;;;;5074589;28;20085;-43
2021/01/02 03:27:32;;;;;;;17.73;8.73;;;3.00;80.80;;;;;;5074854;28;20036;-45
2021/01/02 03:29:58;;;;;;;17.50;8.40;;;2.90;80.50;;;;;;5074527;28;20374;-42
2021/01/02 03:32:24;;;;;;;21.38;9.02;;;2.90;81.00;;;;;;5074683;28;20054;-45
2021/01/02 03:34:50;;;;;;;21.50;8.50;;;2.90;80.90;;;;;;5074355;28;20028;-48
2021/01/02 03:37:15;;;;;;;19.55;8.88;;;2.90;81.00;;;;;;5074968;28;20060;-43
2021/01/02 03:39:41;;;;;;;20.88;9.20;;;2.90;81.10;;;;;;5073690;28;20033;-45
2021/01/02 03:42:08;;;;;;;20.02;7.70;;;2.80;81.10;;;;;;5055714;28;20048;-44
2021/01/02 03:44:34;;;;;;;21.27;10.43;;;2.80;81.30;;;;;;5054718;28;20385;-43
2021/01/02 03:47:07;;;;;;;18.90;8.63;;;2.80;81.50;;;;;;5056507;28;20370;-44
2021/01/02 03:49:33;;;;;;;19.50;8.25;;;2.80;81.40;;;;;;5073235;28;20125;-45
2021/01/02 03:52:04;;;;;;;18.40;8.68;;;2.90;81.40;;;;;;5074083;28;20496;-43
2021/01/02 03:54:30;;;;;;;15.55;7.53;;;3.00;80.90;;;;;;5073067;28;20119;-43
2021/01/02 03:56:56;;;;;;;20.92;8.63;;;3.00;80.80;;;;;;5073235;28;20032;-43
2021/01/02 03:59:22;;;;;;;19.67;9.10;;;3.00;80.90;;;;;;5074186;28;20035;-43
2021/01/02 04:01:56;;;;;;;19.63;8.55;;;3.10;80.70;;;;;;5072769;28;20039;-42
2021/01/02 04:04:22;;;;;;;17.75;8.45;;;3.00;80.60;;;;;;5074074;28;20085;-46
2021/01/02 04:06:48;;;;;;;18.48;9.07;;;3.00;80.90;;;;;;5074325;28;20075;-45
2021/01/02 04:09:14;;;;;;;20.38;9.07;;;3.00;80.90;;;;;;5074022;28;20028;-43
2021/01/02 04:11:43;;;;;;;22.45;8.95;;;3.00;81.00;;;;;;5072754;28;20570;-43
2021/01/02 04:14:10;;;;;;;19.95;8.82;;;3.00;80.70;;;;;;5065764;28;20049;-43
2021/01/02 04:16:36;;;;;;;19.98;9.38;;;3.00;80.60;;;;;;5053621;28;20423;-44
2021/01/02 04:19:06;;;;;;;20.85;9.43;;;3.00;80.80;;;;;;5053412;28;20173;-43
2021/01/02 04:21:32;;;;;;;22.67;9.75;;;3.00;81.00;;;;;;5053878;28;20086;-43
2021/01/02 04:23:58;;;;;;;20.98;9.52;;;3.00;80.90;;;;;;5053339;28;20500;-45
2021/01/02 04:26:25;;;;;;;18.35;8.50;;;3.00;80.70;;;;;;5053682;28;20250;-43
2021/01/02 04:28:52;;;;;;;22.92;9.10;;;3.00;80.60;;;;;;5052292;28;20074;-45
2021/01/02 04:31:18;;;;;;;18.45;7.93;;;3.00;80.50;;;;;;5052654;28;20044;-45
2021/01/02 04:33:44;;;;;;;21.52;9.93;;;3.00;80.50;;;;;;5060255;28;20020;-45
2021/01/02 04:36:15;;;;;;;18.10;8.48;;;2.90;80.90;;;;;;5073227;28;20508;-46
2021/01/02 04:38:41;;;;;;;21.50;8.93;;;2.90;80.90;;;;;;5073456;28;20070;-44
2021/01/02 04:41:07;;;;;;;19.80;9.57;;;3.00;80.80;;;;;;5061423;28;20064;-44
2021/01/02 04:43:33;;;;;;;25.08;9.93;;;2.90;80.80;;;;;;5056434;28;20107;-45
2021/01/02 04:46:02;;;;;;;20.45;8.82;;;2.90;81.00;;;;;;5073067;28;20055;-44
2021/01/02 04:48:28;;;;;;;20.48;8.80;;;2.80;81.10;;;;;;5054156;28;20039;-44
2021/01/02 04:50:54;;;;;;;21.58;9.82;;;2.90;80.90;;;;;;5071440;28;20024;-45
2021/01/02 04:53:21;;;;;;;19.45;8.75;;;2.90;81.10;;;;;;5073155;28;20086;-43
2021/01/02 04:55:47;;;;;;;21.13;9.90;;;2.90;81.10;;;;;;5071837;28;20119;-44
2021/01/02 04:58:14;;;;;;;18.83;8.68;;;2.70;81.30;;;;;;5072821;28;20119;-44
2021/01/02 05:00:41;;;;;;;23.20;9.73;;;2.80;81.30;;;;;;5055141;28;20507;-45
2021/01/02 05:03:07;;;;;;;19.42;9.45;;;2.90;81.10;;;;;;5072943;28;20035;-44
2021/01/02 05:05:34;;;;;;;22.80;8.85;;;2.90;81.00;;;;;;5052811;28;20025;-43
2021/01/02 05:08:00;;;;;;;19.48;9.93;;;2.80;81.10;;;;;;5052880;28;20123;-46
2021/01/02 05:10:26;;;;;;;19.85;8.48;;;2.80;81.20;;;;;;5034954;28;20554;-44
2021/01/02 05:13:10;;;;;;;23.52;9.88;;;2.80;81.40;;;;;;5052684;28;20036;-47
2021/01/02 05:15:36;;;;;;;19.23;8.45;;;2.80;81.50;;;;;;5052755;28;20057;-44
2021/01/02 05:18:02;;;;;;;19.95;9.32;;;2.70;81.60;;;;;;5037333;28;20562;-43
2021/01/02 05:20:28;;;;;;;21.92;9.77;;;2.70;81.60;;;;;;5071944;28;20115;-44
2021/01/02 05:22:54;;;;;;;19.67;9.45;;;2.70;81.80;;;;;;5071462;28;20131;-43
2021/01/02 05:25:22;;;;;;;23.63;10.32;;;2.70;81.80;;;;;;5072702;28;20040;-45
2021/01/02 05:27:52;;;;;;;18.27;8.85;;;2.70;81.70;;;;;;5071315;28;20028;-45
2021/01/02 05:30:21;;;;;;;18.83;9.00;;;2.70;81.70;;;;;;5071206;28;20081;-43
2021/01/02 05:32:53;;;;;;;22.88;9.57;;;2.60;82.10;;;;;;5072594;28;20028;-44
2021/01/02 05:35:20;;;;;;;20.27;9.98;;;2.70;82.10;;;;;;5071095;28;20481;-44
2021/01/02 05:37:48;;;;;;;21.00;9.90;;;2.70;82.10;;;;;;5071554;28;20439;-44
2021/01/02 05:40:33;;;;;;;20.83;8.52;;;2.70;82.30;;;;;;5051260;28;20049;-44
2021/01/02 05:43:00;;;;;;;22.00;10.05;;;2.70;82.10;;;;;;5052095;28;20029;-44
2021/01/02 05:45:30;;;;;;;22.77;10.38;;;2.70;82.10;;;;;;5051204;28;20556;-43
2021/01/02 05:48:10;;;;;;;21.10;10.02;;;2.60;82.10;;;;;;5051434;28;20039;-43
2021/01/02 05:50:44;;;;;;;23.42;10.07;;;2.50;82.30;;;;;;5050879;28;20032;-46
2021/01/02 05:53:28;;;;;;;23.02;9.95;;;2.50;82.60;;;;;;5052171;28;20441;-43
2021/01/02 05:56:01;;;;;;;22.75;10.32;;;2.50;82.70;;;;;;5052824;28;20029;-43
2021/01/02 05:58:32;;;;;;;24.52;10.40;;;2.50;82.60;;;;;;5052203;28;20048;-42
2021/01/02 06:01:17;;;;;;;24.42;10.70;;;2.50;82.60;;;;;;5051800;28;20047;-45
2021/01/02 06:03:45;;;;;;;24.30;10.77;;;2.50;82.60;;;;;;5052054;28;20078;-43
2021/01/02 06:06:16;;;;;;;29.13;11.15;;;2.60;82.40;;;;;;5052073;28;20029;-43
2021/01/02 06:08:42;;;;;;;25.15;11.05;;;2.60;82.60;;;;;;5052152;28;20029;-43
2021/01/02 06:11:14;;;;;;;21.58;10.38;;;2.50;82.60;;;;;;5051917;28;20040;-42
2021/01/02 06:13:43;;;;;;;26.00;10.52;;;2.50;82.40;;;;;;5071581;28;20119;-45
2021/01/02 06:16:09;;;;;;;22.58;10.98;;;2.40;82.40;;;;;;5047878;28;20030;-42
2021/01/02 06:18:38;;;;;;;25.67;11.98;;;2.40;82.50;;;;;;5032050;28;20056;-45
2021/01/02 06:21:12;;;;;;;24.67;11.93;;;2.50;82.40;;;;;;5031801;28;20036;-43
2021/01/02 06:23:40;;;;;;;23.70;10.00;;;2.50;82.40;;;;;;5032298;28;20061;-43
2021/01/02 06:26:08;;;;;;;24.02;10.52;;;2.60;82.20;;;;;;5031763;28;20120;-43
2021/01/02 06:28:38;;;;;;;25.35;11.15;;;2.50;82.10;;;;;;5031324;28;20029;-44
2021/01/02 06:31:07;;;;;;;27.20;11.13;;;2.50;82.10;;;;;;5030656;28;20385;-43
2021/01/02 06:33:33;;;;;;;24.25;10.65;;;2.50;82.10;;;;;;5038356;28;20025;-43
2021/01/02 06:36:00;;;;;;;26.38;11.65;;;2.50;82.20;;;;;;5051870;28;20639;-43
2021/01/02 06:38:26;;;;;;;26.27;10.88;;;2.50;82.20;;;;;;5051745;28;20043;-43
2021/01/02 06:40:55;;;;;;;24.02;10.93;;;2.60;81.80;;;;;;5043319;28;20026;-42
2021/01/02 06:43:24;;;;;;;26.27;11.85;;;2.40;82.10;;;;;;5031787;28;20120;-45
2021/01/02 06:45:54;;;;;;;23.90;11.02;;;2.50;82.10;;;;;;5031883;28;20091;-44
2021/01/02 06:48:20;;;;;;;28.05;10.57;;;2.50;82.10;;;;;;5031525;28;20033;-44
2021/01/02 06:50:47;;;;;;;23.85;11.30;;;2.60;81.80;;;;;;5031441;28;20038;-43
2021/01/02 06:53:36;;;;;;;26.13;11.68;;;2.50;81.90;;;;;;5030040;28;20038;-44
2021/01/02 06:56:04;;;;;;;23.98;10.90;;;2.50;82.00;;;;;;5031483;28;20394;-46
2021/01/02 06:58:46;;;;;;;22.40;10.25;;;2.50;82.00;;;;;;5031914;28;20049;-43
2021/01/02 07:01:18;;;;;;;24.33;11.27;;;2.50;81.90;;;;;;5035068;28;20033;-46
2021/01/02 07:03:48;;;;;;;26.20;11.15;;;2.50;81.90;;;;;;5034115;28;20421;-42
2021/01/02 07:06:23;;;;;;;23.30;10.75;;;2.50;81.90;;;;;;5035135;28;20422;-43
2021/01/02 07:08:57;;;;;;;21.23;9.88;;;2.60;81.60;;;;;;5035453;28;20074;-46
2021/01/02 07:11:38;;;;;;;23.52;10.23;;;2.60;81.50;;;;;;5034725;28;20433;-42
2021/01/02 07:14:09;;;;;;;25.80;10.90;;;2.60;81.60;;;;;;5037627;28;20461;-44
2021/01/02 07:16:58;;;;;;;28.38;10.40;;;2.50;81.60;;;;;;5055387;28;20025;-44
2021/01/02 07:21:59;;;;;;;28.38;10.90;;;2.50;81.80;;;;;;5075032;28;20063;-44
2021/01/02 07:24:54;;;;;;;24.77;11.48;;;2.50;81.70;;;;;;5075183;28;20426;-46
2021/01/02 07:27:26;;;;;;;25.63;10.93;;;2.60;81.60;;;;;;5074475;28;20044;-44
2021/01/02 07:29:53;;;;;;;25.95;12.38;;;2.60;81.40;;;;;;5074642;28;20040;-45
2021/01/02 07:32:26;;;;;;;22.55;9.57;;;2.60;81.50;;;;;;5074498;28;20033;-45
2021/01/02 07:34:58;;;;;;;23.63;11.02;;;2.60;81.40;;;;;;5073498;28;20036;-43
2021/01/02 07:37:26;;;;;;;25.00;11.15;;;2.60;81.40;;;;;;5073597;28;20075;-42
2021/01/02 07:40:08;;;;;;;23.98;10.32;;;2.60;81.40;;;;;;5074853;28;20051;-44
2021/01/02 07:42:39;;;;;;;24.77;10.18;;;2.60;81.40;;;;;;5053982;28;20451;-46
2021/01/02 07:45:11;;;;;;;24.83;11.38;;;2.50;81.20;;;;;;5054194;28;20474;-45
2021/01/02 07:47:44;;;;;;;23.33;9.85;;;2.50;81.70;;;;;;5070668;28;20033;-44
2021/01/02 07:50:12;;;;;;;24.33;10.82;;;2.60;81.50;;;;;;5074606;28;20525;-45
2021/01/02 07:52:47;;;;;;;25.88;11.48;;;2.60;81.10;;;;;;5073855;28;20391;-43
2021/01/02 07:55:14;;;;;;;22.93;10.07;;;2.70;81.20;;;;;;5058077;28;20036;-43
2021/01/02 07:57:40;;;;;;;26.38;11.25;;;2.70;81.10;;;;;;5054219;28;20048;-42
2021/01/02 08:00:08;;;;;;;22.75;9.90;;;2.70;81.00;;;;;;5054167;28;20491;-45
2021/01/02 08:02:39;;;;;;;22.95;9.50;;;2.70;81.20;;;;;;5036589;28;20064;-43
2021/01/02 08:05:07;;;;;;;22.08;10.23;;;2.70;80.70;;;;;;5052811;28;20461;-44
2021/01/02 08:07:33;;;;;;;25.05;11.40;;;2.70;80.80;;;;;;5053973;28;20549;-45
2021/01/02 08:09:59;;;;;;;24.20;11.13;;;2.70;80.80;;;;;;5053788;28;20119;-43
2021/01/02 08:12:24;;;;;;;24.80;10.63;;;2.70;80.60;;;;;;5053637;28;20052;-43
2021/01/02 08:14:50;;;;;;;24.75;11.10;;;2.70;80.30;;;;;;5052496;28;20061;-44
2021/01/02 08:17:18;;;;;;;21.23;9.77;;;2.70;80.00;;;;;;5067065;28;20032;-44
2021/01/02 08:19:47;;;;;;;21.27;9.50;;;2.70;80.20;;;;;;5072339;28;20024;-43
2021/01/02 08:22:37;;;;;;;24.42;10.25;;;2.70;80.20;;;;;;5072179;28;20025;-42
2021/01/02 08:25:15;;;;;;;23.33;10.38;;;2.70;80.20;;;;;;5073763;28;20032;-43
2021/01/02 08:27:42;;;;;;;23.45;9.45;;;2.70;80.00;;;;;;5073064;28;20093;-43
2021/01/02 08:30:10;;;;;;;19.90;9.80;;;2.70;79.90;;;;;;5073447;28;20033;-48
2021/01/02 08:32:43;;;;;;;19.70;9.30;;;2.70;79.90;;;;;;5073644;28;20029;-43
2021/01/02 08:35:38;;;;;;;21.20;9.75;;;2.70;79.90;;;;;;5073362;28;20119;-44
2021/01/02 08:38:12;;;;;;;18.95;9.10;;;2.80;79.80;;;;;;5071931;28;20066;-43
2021/01/02 08:40:49;;;;;;;21.70;10.48;;;2.80;79.40;;;;;;5067196;28;20388;-43
2021/01/02 08:43:22;;;;;;;22.25;10.07;;;2.80;79.50;;;;;;5053091;28;20481;-46
2021/01/02 08:45:48;;;;;;;21.88;9.50;;;2.80;79.60;;;;;;5052780;28;20439;-42
2021/01/02 08:48:16;;;;;;;20.10;9.40;;;2.80;79.50;;;;;;5059606;28;20098;-43
2021/01/02 08:50:42;;;;;;;21.83;10.60;;;2.90;79.30;;;;;;5072948;28;20029;-43
2021/01/02 08:53:25;;;;;;;21.27;10.02;;;2.90;79.30;;;;;;5071794;28;20052;-47
2021/01/02 08:55:51;;;;;;;22.20;9.90;;;2.90;79.20;;;;;;5073575;28;20024;-45
2021/01/02 08:58:37;;;;;;;20.33;8.82;;;3.00;79.00;;;;;;5072809;28;20037;-44
2021/01/02 09:01:03;;;;;;;19.55;9.02;;;2.90;79.20;;;;;;5071811;28;20047;-42
2021/01/02 09:03:29;;;;;;;18.45;8.50;;;2.90;79.10;;;;;;5071876;28;20048;-44
2021/01/02 09:05:55;;;;;;;22.10;9.70;;;2.90;79.00;;;;;;5071759;28;20397;-45
2021/01/02 09:08:21;;;;;;;21.75;9.88;;;2.90;79.30;;;;;;5072758;28;20032;-46
2021/01/02 09:10:54;;;;;;;20.17;9.38;;;2.80;79.40;;;;;;5071549;28;20028;-45
2021/01/02 09:13:23;;;;;;;19.00;8.40;;;2.80;79.40;;;;;;5071657;28;20396;-46
2021/01/02 09:15:52;;;;;;;20.38;9.27;;;2.80;79.30;;;;;;5058367;28;20060;-43
2021/01/02 09:18:30;;;;;;;21.92;9.52;;;2.80;79.20;;;;;;5052720;28;20397;-44
2021/01/02 09:20:57;;;;;;;22.50;9.13;;;2.90;79.30;;;;;;5061140;28;20482;-47
2021/01/02 09:23:30;;;;;;;22.13;9.90;;;2.90;79.20;;;;;;5051967;28;20029;-44
2021/01/02 09:25:56;;;;;;;23.73;10.10;;;2.90;79.40;;;;;;5052502;28;20037;-43
2021/01/02 09:28:21;;;;;;;21.45;9.70;;;3.00;79.00;;;;;;5050930;28;20029;-43
2021/01/02 09:30:49;;;;;;;21.98;9.98;;;3.00;79.00;;;;;;5051488;28;20025;-43
2021/01/02 09:33:15;;;;;;;22.02;9.80;;;2.90;79.50;;;;;;5065174;28;20032;-42
2021/01/02 09:35:43;;;;;;;23.70;10.73;;;3.00;79.00;;;;;;5071549;28;20032;-45
2021/01/02 09:38:10;;;;;;;23.23;9.82;;;3.10;78.90;;;;;;5071996;28;20036;-49
2021/01/02 09:40:38;;;;;;;21.20;10.02;;;3.10;78.80;;;;;;5066290;28;20035;-47
2021/01/02 09:43:12;;;;;;;23.30;9.88;;;3.10;79.00;;;;;;5051211;28;20035;-45
2021/01/02 09:45:38;;;;;;;21.80;9.27;;;3.20;78.40;;;;;;5052531;28;20378;-44
2021/01/02 09:48:05;;;;;;;18.98;9.15;;;3.20;78.70;;;;;;5052278;28;20028;-45
2021/01/02 09:50:31;;;;;;;22.27;9.52;;;3.20;78.70;;;;;;5052154;28;20033;-49
2021/01/02 09:52:56;;;;;;;23.02;10.13;;;3.10;78.70;;;;;;5056668;28;20033;-45
2021/01/02 09:55:22;;;;;;;22.92;9.68;;;3.10;78.90;;;;;;5072722;28;20082;-46
2021/01/02 09:57:49;;;;;;;23.00;9.90;;;3.10;79.00;;;;;;5072061;28;20044;-47
2021/01/02 10:00:16;;;;;;;21.73;9.73;;;3.10;79.00;;;;;;5071058;28;20396;-47
2021/01/02 10:02:42;;;;;;;22.85;9.75;;;3.10;78.70;;;;;;5072488;28;20112;-45
2021/01/02 10:05:08;;;;;;;23.17;9.95;;;3.10;79.00;;;;;;5072193;28;20032;-43
2021/01/02 10:07:34;;;;;;;26.98;10.23;;;3.10;78.90;;;;;;5071814;28;20028;-44
2021/01/02 10:10:00;;;;;;;20.85;9.82;;;3.20;79.10;;;;;;5071532;28;20036;-47
2021/01/02 10:12:26;;;;;;;24.23;10.20;;;3.20;78.90;;;;;;5071851;28;20119;-45
2021/01/02 10:14:52;;;;;;;23.17;10.13;;;3.20;79.00;;;;;;5072029;28;20385;-45
2021/01/02 10:17:18;;;;;;;24.02;10.13;;;3.20;78.80;;;;;;5054520;28;20098;-47
2021/01/02 10:19:45;;;;;;;21.60;9.13;;;3.20;78.70;;;;;;5062883;28;20168;-50
2021/01/02 10:22:12;;;;;;;23.98;10.70;;;3.20;78.80;;;;;;5071967;28;20036;-45
2021/01/02 10:24:38;;;;;;;24.13;9.45;;;3.20;79.00;;;;;;5071971;28;20081;-45
2021/01/02 10:27:06;;;;;;;22.00;10.02;;;3.10;79.20;;;;;;5064115;28;20044;-46
2021/01/02 10:29:32;;;;;;;23.33;9.70;;;3.20;79.10;;;;;;5050427;28;20033;-45
2021/01/02 10:32:03;;;;;;;20.25;9.15;;;3.10;78.80;;;;;;5051960;28;20036;-49
2021/01/02 10:34:29;;;;;;;22.45;9.40;;;3.20;79.20;;;;;;5066116;28;20037;-46
2021/01/02 10:36:55;;;;;;;23.23;10.30;;;3.20;79.10;;;;;;5075727;28;20032;-48
2021/01/02 10:39:21;;;;;;;24.33;9.98;;;3.30;78.80;;;;;;5057465;28;20067;-45
2021/01/02 10:41:49;;;;;;;20.95;10.38;;;3.30;78.10;;;;;;5059869;28;20025;-44
2021/01/02 10:44:15;;;;;;;24.40;10.25;;;3.30;78.20;;;;;;5054703;28;20064;-46
2021/01/02 10:46:52;;;;;;;25.23;10.60;;;3.30;78.30;;;;;;5055808;28;20029;-44
2021/01/02 10:49:22;;;;;;;22.13;9.25;;;3.30;78.30;;;;;;5071047;28;20101;-47
2021/01/02 10:51:49;;;;;;;23.50;10.52;;;3.30;78.40;;;;;;5074966;28;20025;-48
2021/01/02 10:54:16;;;;;;;23.90;10.95;;;3.40;78.30;;;;;;5075226;28;20033;-45
2021/01/02 10:56:47;;;;;;;24.20;10.40;;;3.20;78.20;;;;;;5075288;28;20028;-44
2021/01/02 10:59:13;;;;;;;23.65;10.75;;;3.30;78.40;;;;;;5075114;28;20515;-44
2021/01/02 11:01:45;;;;;;;22.08;10.10;;;3.20;78.40;;;;;;5063665;28;20032;-47
2021/01/02 11:04:11;;;;;;;23.77;11.07;;;3.30;78.20;;;;;;5055119;28;20036;-49
2021/01/02 11:06:42;;;;;;;27.92;11.10;;;3.30;78.50;;;;;;5055011;28;20056;-45
2021/01/02 11:09:11;;;;;;;25.92;10.65;;;3.30;78.60;;;;;;5054148;28;20120;-44
2021/01/02 11:11:37;;;;;;;24.75;10.10;;;3.40;78.70;;;;;;5054865;28;20025;-46
2021/01/02 11:14:04;;;;;;;26.17;11.25;;;3.40;77.80;;;;;;5054939;28;20496;-48
2021/01/02 11:16:32;;;;;;;23.45;10.52;;;3.40;78.00;;;;;;5054930;28;20071;-46
2021/01/02 11:18:58;;;;;;;22.13;10.15;;;3.30;78.10;;;;;;5068297;28;20047;-47
2021/01/02 11:21:24;;;;;;;23.35;10.23;;;3.40;78.00;;;;;;5074927;28;20344;-45
2021/01/02 11:23:51;;;;;;;25.80;9.30;;;3.40;78.10;;;;;;5073782;28;20037;-48
2021/01/02 11:26:17;;;;;;;23.83;10.98;;;3.60;77.30;;;;;;5074644;28;20137;-45
2021/01/02 11:28:43;;;;;;;23.50;9.45;;;3.70;77.10;;;;;;5074664;28;20115;-45
2021/01/02 11:31:09;;;;;;;23.48;10.40;;;3.60;77.00;;;;;;5074724;28;20025;-44
2021/01/02 11:33:34;;;;;;;22.27;9.65;;;3.60;77.00;;;;;;5073034;28;20025;-46
2021/01/02 11:36:00;;;;;;;26.80;10.55;;;3.70;76.80;;;;;;5073946;28;20040;-48
2021/01/02 11:38:26;;;;;;;21.88;9.52;;;3.60;76.40;;;;;;5074727;28;20051;-47
2021/01/02 11:40:52;;;;;;;23.63;10.15;;;3.50;76.40;;;;;;5066348;28;20032;-46
2021/01/02 11:43:19;;;;;;;23.27;10.38;;;3.40;77.00;;;;;;5054296;28;20538;-46
2021/01/02 11:45:48;;;;;;;22.85;10.48;;;3.30;77.30;;;;;;5057421;28;20384;-48
2021/01/02 11:48:15;;;;;;;20.52;9.35;;;3.40;77.50;;;;;;5067371;28;20032;-46
2021/01/02 11:50:42;;;;;;;25.10;10.48;;;3.40;77.80;;;;;;5063882;28;20127;-45
2021/01/02 11:53:08;;;;;;;24.00;10.40;;;3.60;77.00;;;;;;5073763;28;20051;-45
2021/01/02 11:55:34;;;;;;;20.15;9.35;;;3.70;76.90;;;;;;5074718;28;20464;-46
2021/01/02 11:58:01;;;;;;;24.13;9.85;;;3.30;77.20;;;;;;5073032;28;20067;-44
2021/01/02 12:00:28;;;;;;;22.42;9.05;;;3.40;77.40;;;;;;5072703;28;20029;-48
2021/01/02 12:02:54;;;;;;;20.27;9.25;;;3.50;77.30;;;;;;5062649;28;20486;-45
2021/01/02 12:05:22;;;;;;;21.40;8.85;;;3.50;76.80;;;;;;5053748;28;20079;-44
2021/01/02 12:07:48;;;;;;;23.88;10.25;;;3.60;77.10;;;;;;5054032;28;20547;-48
2021/01/02 12:10:14;;;;;;;21.13;9.70;;;3.60;77.00;;;;;;5054527;28;20029;-47
2021/01/02 12:12:39;;;;;;;22.30;10.27;;;3.60;77.10;;;;;;5053815;28;20039;-45
2021/01/02 12:15:06;;;;;;;21.33;9.82;;;3.70;76.70;;;;;;5069050;28;20060;-45
2021/01/02 12:17:33;;;;;;;21.92;9.48;;;3.90;76.60;;;;;;5073458;28;20345;-45
2021/01/02 12:19:59;;;;;;;20.20;9.52;;;3.90;76.00;;;;;;5073912;28;20033;-46
2021/01/02 12:22:25;;;;;;;21.65;9.38;;;3.90;76.10;;;;;;5072378;28;20472;-44
2021/01/02 12:24:51;;;;;;;23.73;9.38;;;3.90;75.90;;;;;;5073983;28;20043;-47
2021/01/02 12:27:17;;;;;;;21.23;9.48;;;4.10;75.40;;;;;;5071861;28;20032;-45
2021/01/02 12:29:44;;;;;;;20.83;9.80;;;4.00;75.30;;;;;;5072372;28;20036;-46
2021/01/02 12:32:10;;;;;;;19.23;8.43;;;3.90;76.30;;;;;;5073362;28;20119;-45
2021/01/02 12:34:41;;;;;;;21.73;9.40;;;3.90;75.70;;;;;;5072147;28;20033;-47
2021/01/02 12:37:10;;;;;;;22.60;10.55;;;3.90;76.20;;;;;;5073593;28;20028;-46
2021/01/02 12:39:36;;;;;;;20.10;8.85;;;3.70;76.60;;;;;;5071914;28;20059;-43
2021/01/02 12:42:03;;;;;;;18.38;8.00;;;3.80;76.50;;;;;;5073112;28;20526;-47
2021/01/02 12:44:29;;;;;;;21.08;9.15;;;3.70;76.20;;;;;;5054392;28;20509;-44
2021/01/02 12:46:58;;;;;;;23.90;9.90;;;3.70;77.00;;;;;;5058898;28;20036;-45
2021/01/02 12:49:27;;;;;;;21.58;9.38;;;3.70;76.60;;;;;;5072894;28;20064;-47
2021/01/02 12:51:58;;;;;;;22.33;10.02;;;3.60;76.90;;;;;;5073143;28;20024;-47
2021/01/02 12:54:24;;;;;;;22.05;9.52;;;3.60;76.90;;;;;;5072829;28;20032;-46
2021/01/02 12:56:52;;;;;;;23.35;9.15;;;3.70;77.20;;;;;;5072749;28;20056;-46
2021/01/02 12:59:27;;;;;;;23.50;9.45;;;3.80;76.80;;;;;;5072103;28;20443;-46
2021/01/02 13:01:56;;;;;;;25.27;9.60;;;3.80;76.40;;;;;;5051692;28;20024;-47